Phillipsville, California
Current Conditions -  °F | °C
As of 4:50 PM on Wednesday 22 Oct 2014 (Local Time) from KFOT Reporting Station
Overcast Overcast  
Wind Chill: 63°   Ceiling: 3200
Heat Index: 63°   Visibility: 9mi
Dew Point: 55°   Wind: 18mph
Humidity: 77%   Direction: 130°SE
Pressure: 29.98"   Gusts: NA
Location:  40.21°N, 123.78°W
Report Text: KFOT 222350Z AUTO 13016KT 9SM OVC032 17/13 A2998 RMK AO1
Loading
Personal Weather Stations






























Interactive Weather Map
Tropical Storm Tracking
New forecast layout! Learn more

10-Day Weather Forecast

Advertisements
Track Severe Weather on mobile